YMA7582 YPKA-YBRM
Flight info
| Callsign | YMA7582 |
|---|---|
| Flight time | 0h 55m |
| Altitude | 35000 |
| Route | KA J93 PD J151 SAFIR DCT BUDLO DCT BRM |
| Aircraft | B738/M-SDE2E3FGHIRWXY/LB1 |
Departure
| Time | 2026-04-18 09:02 |
|---|---|
| Airport | Karratha Airport (YPKA) |
Arrival
| Time | 2026-04-18 09:58 |
|---|---|
| Airport | Broome International Airport (YBRM) |
| Time | Latitude | Longitude | Altitude | Speed | Heading |
|---|---|---|---|---|---|
| 2026-04-18 08:48 | -20.70960 | 116.76957 | 40 ft | 0 kts | 30° |
| 2026-04-18 08:58 | -20.70960 | 116.76961 | 40 ft | 1 kts | 81° |
| 2026-04-18 08:58 | -20.70969 | 116.76969 | 40 ft | 2 kts | 149° |
| 2026-04-18 08:58 | -20.71004 | 116.76994 | 40 ft | 9 kts | 138° |
| 2026-04-18 08:59 | -20.71051 | 116.77046 | 40 ft | 9 kts | 159° |
| 2026-04-18 08:59 | -20.71112 | 116.77059 | 41 ft | 8 kts | 174° |
| 2026-04-18 08:59 | -20.71161 | 116.77017 | 42 ft | 12 kts | 254° |
| 2026-04-18 08:59 | -20.71175 | 116.76932 | 43 ft | 11 kts | 263° |
| 2026-04-18 09:00 | -20.71180 | 116.76850 | 43 ft | 11 kts | 267° |
| 2026-04-18 09:00 | -20.71188 | 116.76770 | 43 ft | 10 kts | 262° |
| 2026-04-18 09:00 | -20.71197 | 116.76692 | 43 ft | 10 kts | 263° |
| 2026-04-18 09:00 | -20.71208 | 116.76597 | 43 ft | 14 kts | 263° |
| 2026-04-18 09:01 | -20.71230 | 116.76497 | 43 ft | 13 kts | 229° |
| 2026-04-18 09:01 | -20.71318 | 116.76475 | 43 ft | 13 kts | 173° |
| 2026-04-18 09:01 | -20.71394 | 116.76502 | 44 ft | 10 kts | 117° |
| 2026-04-18 09:01 | -20.71389 | 116.76594 | 44 ft | 18 kts | 83° |
| 2026-04-18 09:02 | -20.71346 | 116.76994 | 43 ft | 89 kts | 83° |
| 2026-04-18 09:02 | -20.71253 | 116.77891 | 34 ft | 150 kts | 83° |
| 2026-04-18 09:02 | -20.71118 | 116.79125 | 256 ft | 176 kts | 81° |
| 2026-04-18 09:02 | -20.70976 | 116.80437 | 848 ft | 182 kts | 76° |
| 2026-04-18 09:03 | -20.70701 | 116.81731 | 1590 ft | 181 kts | 73° |
| 2026-04-18 09:03 | -20.70422 | 116.83059 | 2087 ft | 192 kts | 76° |
| 2026-04-18 09:03 | -20.70168 | 116.84506 | 2573 ft | 204 kts | 78° |
| 2026-04-18 09:03 | -20.69919 | 116.86040 | 3065 ft | 215 kts | 78° |
| 2026-04-18 09:04 | -20.69644 | 116.87682 | 3431 ft | 236 kts | 78° |
| 2026-04-18 09:04 | -20.69333 | 116.89436 | 3968 ft | 251 kts | 78° |
| 2026-04-18 09:04 | -20.68998 | 116.91308 | 4524 ft | 264 kts | 79° |
| 2026-04-18 09:04 | -20.68650 | 116.93264 | 5238 ft | 270 kts | 79° |
| 2026-04-18 09:05 | -20.68304 | 116.95219 | 6000 ft | 274 kts | 80° |
| 2026-04-18 09:05 | -20.67949 | 116.97227 | 6824 ft | 277 kts | 80° |
| 2026-04-18 09:05 | -20.67592 | 116.99241 | 7643 ft | 281 kts | 80° |
| 2026-04-18 09:05 | -20.67232 | 117.01273 | 8479 ft | 284 kts | 80° |
| 2026-04-18 09:06 | -20.66862 | 117.03355 | 9346 ft | 287 kts | 80° |
| 2026-04-18 09:06 | -20.66493 | 117.05437 | 10136 ft | 292 kts | 80° |
| 2026-04-18 09:06 | -20.66106 | 117.07613 | 10652 ft | 309 kts | 79° |
| 2026-04-18 09:06 | -20.65693 | 117.09939 | 11120 ft | 328 kts | 79° |
| 2026-04-18 09:07 | -20.65258 | 117.12374 | 11578 ft | 345 kts | 79° |
| 2026-04-18 09:07 | -20.64796 | 117.14957 | 11993 ft | 362 kts | 79° |
| 2026-04-18 09:07 | -20.64315 | 117.17641 | 12503 ft | 376 kts | 79° |
| 2026-04-18 09:07 | -20.63814 | 117.20438 | 13171 ft | 384 kts | 79° |
| 2026-04-18 09:08 | -20.63310 | 117.23248 | 13869 ft | 391 kts | 79° |
| 2026-04-18 09:08 | -20.62800 | 117.26093 | 14566 ft | 398 kts | 79° |
| 2026-04-18 09:08 | -20.62278 | 117.29006 | 15259 ft | 405 kts | 79° |
| 2026-04-18 09:08 | -20.61745 | 117.31972 | 15958 ft | 411 kts | 79° |
| 2026-04-18 09:09 | -20.61204 | 117.34984 | 16667 ft | 417 kts | 79° |
| 2026-04-18 09:09 | -20.60655 | 117.38040 | 17366 ft | 422 kts | 79° |
| 2026-04-18 09:09 | -20.60102 | 117.41112 | 18061 ft | 427 kts | 78° |
| 2026-04-18 09:09 | -20.59537 | 117.44251 | 18716 ft | 433 kts | 78° |
| 2026-04-18 09:10 | -20.58971 | 117.47383 | 19371 ft | 438 kts | 78° |
| 2026-04-18 09:10 | -20.58390 | 117.50601 | 19990 ft | 443 kts | 78° |
| 2026-04-18 09:10 | -20.57803 | 117.53844 | 20585 ft | 449 kts | 78° |
| 2026-04-18 09:10 | -20.57215 | 117.57089 | 21183 ft | 453 kts | 78° |
| 2026-04-18 09:11 | -20.56613 | 117.60403 | 21764 ft | 458 kts | 78° |
| 2026-04-18 09:11 | -20.56005 | 117.63757 | 22346 ft | 462 kts | 78° |
| 2026-04-18 09:11 | -20.55396 | 117.67105 | 22920 ft | 467 kts | 78° |
| 2026-04-18 09:11 | -20.54776 | 117.70513 | 23452 ft | 472 kts | 78° |
| 2026-04-18 09:12 | -20.54146 | 117.73979 | 24025 ft | 475 kts | 78° |
| 2026-04-18 09:12 | -20.53518 | 117.77423 | 24555 ft | 479 kts | 78° |
| 2026-04-18 09:12 | -20.52880 | 117.80920 | 25130 ft | 482 kts | 77° |
| 2026-04-18 09:12 | -20.52242 | 117.84417 | 25643 ft | 486 kts | 77° |
| 2026-04-18 09:13 | -20.51594 | 117.87958 | 26130 ft | 490 kts | 77° |
| 2026-04-18 09:13 | -20.50943 | 117.91517 | 26676 ft | 493 kts | 77° |
| 2026-04-18 09:13 | -20.50278 | 117.95147 | 27140 ft | 497 kts | 77° |
| 2026-04-18 09:13 | -20.49617 | 117.98749 | 27621 ft | 501 kts | 77° |
| 2026-04-18 09:14 | -20.48949 | 118.02383 | 28112 ft | 504 kts | 77° |
| 2026-04-18 09:14 | -20.48276 | 118.06046 | 28577 ft | 507 kts | 77° |
| 2026-04-18 09:14 | -20.47596 | 118.09737 | 29065 ft | 510 kts | 77° |
| 2026-04-18 09:14 | -20.46913 | 118.13444 | 29823 ft | 505 kts | 77° |
| 2026-04-18 09:15 | -20.46245 | 118.17067 | 30541 ft | 502 kts | 77° |
| 2026-04-18 09:15 | -20.45569 | 118.20734 | 31180 ft | 500 kts | 77° |
| 2026-04-18 09:15 | -20.44900 | 118.24348 | 31778 ft | 499 kts | 77° |
| 2026-04-18 09:15 | -20.44233 | 118.27953 | 32357 ft | 498 kts | 77° |
| 2026-04-18 09:16 | -20.43563 | 118.31568 | 32942 ft | 496 kts | 77° |
| 2026-04-18 09:16 | -20.42899 | 118.35141 | 33517 ft | 495 kts | 77° |
| 2026-04-18 09:16 | -20.42237 | 118.38704 | 34157 ft | 493 kts | 77° |
| 2026-04-18 09:16 | -20.41570 | 118.42288 | 34719 ft | 491 kts | 77° |
| 2026-04-18 09:17 | -20.40906 | 118.45852 | 34903 ft | 495 kts | 77° |
| 2026-04-18 09:17 | -20.40237 | 118.49432 | 34898 ft | 493 kts | 77° |
| 2026-04-18 09:17 | -20.38886 | 118.56609 | 34896 ft | 494 kts | 76° |
| 2026-04-18 09:18 | -20.37038 | 118.63628 | 34895 ft | 490 kts | 66° |
| 2026-04-18 09:18 | -20.34139 | 118.70159 | 34898 ft | 486 kts | 58° |
| 2026-04-18 09:19 | -20.30852 | 118.76444 | 34899 ft | 486 kts | 57° |
| 2026-04-18 09:19 | -20.27512 | 118.82708 | 34901 ft | 486 kts | 57° |
| 2026-04-18 09:20 | -20.24214 | 118.88987 | 34901 ft | 486 kts | 58° |
| 2026-04-18 09:20 | -20.20970 | 118.95249 | 34902 ft | 485 kts | 58° |
| 2026-04-18 09:21 | -20.17723 | 119.01560 | 34903 ft | 486 kts | 58° |
| 2026-04-18 09:21 | -20.14487 | 119.07861 | 34905 ft | 485 kts | 58° |
| 2026-04-18 09:22 | -20.11263 | 119.14139 | 34905 ft | 484 kts | 58° |
| 2026-04-18 09:22 | -20.08033 | 119.20418 | 34906 ft | 484 kts | 58° |
| 2026-04-18 09:23 | -20.04814 | 119.26669 | 34897 ft | 483 kts | 58° |
| 2026-04-18 09:23 | -20.01575 | 119.32951 | 34888 ft | 485 kts | 58° |
| 2026-04-18 09:24 | -19.98335 | 119.39227 | 34883 ft | 484 kts | 58° |
| 2026-04-18 09:24 | -19.95105 | 119.45480 | 34884 ft | 483 kts | 58° |
| 2026-04-18 09:25 | -19.91887 | 119.51701 | 34885 ft | 482 kts | 58° |
| 2026-04-18 09:25 | -19.88657 | 119.57940 | 34885 ft | 482 kts | 58° |
| 2026-04-18 09:26 | -19.85430 | 119.64165 | 34885 ft | 482 kts | 58° |
| 2026-04-18 09:26 | -19.82199 | 119.70392 | 34884 ft | 480 kts | 58° |
| 2026-04-18 09:27 | -19.78978 | 119.76594 | 34884 ft | 481 kts | 58° |
| 2026-04-18 09:27 | -19.75743 | 119.82814 | 34885 ft | 480 kts | 58° |
| 2026-04-18 09:28 | -19.72542 | 119.88963 | 34885 ft | 479 kts | 58° |
| 2026-04-18 09:28 | -19.69298 | 119.95184 | 34885 ft | 480 kts | 58° |
| 2026-04-18 09:29 | -19.66077 | 120.01358 | 34883 ft | 480 kts | 58° |
| 2026-04-18 09:29 | -19.62837 | 120.07561 | 34883 ft | 480 kts | 58° |
| 2026-04-18 09:30 | -19.59608 | 120.13737 | 34884 ft | 479 kts | 58° |
| 2026-04-18 09:30 | -19.56391 | 120.19885 | 34884 ft | 478 kts | 58° |
| 2026-04-18 09:31 | -19.53154 | 120.26062 | 34886 ft | 478 kts | 58° |
| 2026-04-18 09:31 | -19.49940 | 120.32188 | 34890 ft | 479 kts | 58° |
| 2026-04-18 09:32 | -19.46703 | 120.38354 | 34889 ft | 479 kts | 58° |
| 2026-04-18 09:32 | -19.43463 | 120.44518 | 34890 ft | 478 kts | 58° |
| 2026-04-18 09:33 | -19.40227 | 120.50668 | 34888 ft | 478 kts | 58° |
| 2026-04-18 09:33 | -19.36999 | 120.56799 | 34888 ft | 478 kts | 58° |
| 2026-04-18 09:34 | -19.33755 | 120.62921 | 34890 ft | 478 kts | 58° |
| 2026-04-18 09:34 | -19.30494 | 120.69031 | 34890 ft | 476 kts | 58° |
| 2026-04-18 09:35 | -19.27236 | 120.75120 | 34888 ft | 476 kts | 58° |
| 2026-04-18 09:35 | -19.23971 | 120.81221 | 34885 ft | 476 kts | 58° |
| 2026-04-18 09:36 | -19.20726 | 120.87281 | 34886 ft | 476 kts | 58° |
| 2026-04-18 09:36 | -19.17457 | 120.93384 | 34884 ft | 475 kts | 58° |
| 2026-04-18 09:37 | -19.14197 | 120.99461 | 34883 ft | 476 kts | 57° |
| 2026-04-18 09:37 | -19.10940 | 121.05531 | 34882 ft | 476 kts | 57° |
| 2026-04-18 09:38 | -19.07710 | 121.11545 | 34505 ft | 468 kts | 57° |
| 2026-04-18 09:38 | -19.06115 | 121.14515 | 33973 ft | 463 kts | 57° |
| 2026-04-18 09:38 | -19.04522 | 121.17480 | 33311 ft | 462 kts | 57° |
| 2026-04-18 09:39 | -19.02955 | 121.20393 | 32606 ft | 462 kts | 58° |
| 2026-04-18 09:39 | -19.01364 | 121.23347 | 31879 ft | 462 kts | 58° |
| 2026-04-18 09:39 | -18.99768 | 121.26309 | 31095 ft | 464 kts | 58° |
| 2026-04-18 09:39 | -18.98187 | 121.29239 | 30472 ft | 464 kts | 58° |
| 2026-04-18 09:40 | -18.96591 | 121.32195 | 29882 ft | 469 kts | 58° |
| 2026-04-18 09:40 | -18.94960 | 121.35216 | 29240 ft | 471 kts | 58° |
| 2026-04-18 09:40 | -18.93345 | 121.38207 | 28599 ft | 468 kts | 58° |
| 2026-04-18 09:40 | -18.91737 | 121.41186 | 28051 ft | 465 kts | 58° |
| 2026-04-18 09:41 | -18.90155 | 121.44116 | 27637 ft | 468 kts | 58° |
| 2026-04-18 09:41 | -18.88525 | 121.47130 | 27057 ft | 471 kts | 58° |
| 2026-04-18 09:41 | -18.86907 | 121.50122 | 26413 ft | 468 kts | 58° |
| 2026-04-18 09:41 | -18.85305 | 121.53085 | 25779 ft | 465 kts | 59° |
| 2026-04-18 09:42 | -18.83712 | 121.56029 | 25119 ft | 462 kts | 59° |
| 2026-04-18 09:42 | -18.82127 | 121.58956 | 24449 ft | 460 kts | 59° |
| 2026-04-18 09:42 | -18.80531 | 121.61880 | 23755 ft | 458 kts | 58° |
| 2026-04-18 09:42 | -18.78871 | 121.64744 | 23069 ft | 456 kts | 56° |
| 2026-04-18 09:43 | -18.77010 | 121.67413 | 22376 ft | 452 kts | 50° |
| 2026-04-18 09:43 | -18.74940 | 121.69911 | 21685 ft | 450 kts | 46° |
| 2026-04-18 09:43 | -18.72781 | 121.72289 | 21004 ft | 447 kts | 44° |
| 2026-04-18 09:43 | -18.70604 | 121.74592 | 20323 ft | 445 kts | 44° |
| 2026-04-18 09:44 | -18.68426 | 121.76863 | 19644 ft | 442 kts | 44° |
| 2026-04-18 09:44 | -18.66239 | 121.79145 | 18972 ft | 440 kts | 44° |
| 2026-04-18 09:44 | -18.64096 | 121.81395 | 18307 ft | 437 kts | 44° |
| 2026-04-18 09:44 | -18.61953 | 121.83658 | 17632 ft | 434 kts | 45° |
| 2026-04-18 09:45 | -18.59829 | 121.85915 | 16936 ft | 431 kts | 45° |
| 2026-04-18 09:45 | -18.57749 | 121.88142 | 16262 ft | 428 kts | 45° |
| 2026-04-18 09:45 | -18.55664 | 121.90382 | 15580 ft | 425 kts | 45° |
| 2026-04-18 09:45 | -18.53626 | 121.92579 | 14920 ft | 422 kts | 45° |
| 2026-04-18 09:46 | -18.51579 | 121.94788 | 14213 ft | 418 kts | 45° |
| 2026-04-18 09:46 | -18.49547 | 121.96980 | 13536 ft | 414 kts | 45° |
| 2026-04-18 09:46 | -18.47569 | 121.99116 | 12858 ft | 408 kts | 45° |
| 2026-04-18 09:46 | -18.45603 | 122.01237 | 12195 ft | 395 kts | 45° |
| 2026-04-18 09:47 | -18.43734 | 122.03252 | 11562 ft | 384 kts | 46° |
| 2026-04-18 09:47 | -18.41873 | 122.05257 | 10936 ft | 374 kts | 46° |
| 2026-04-18 09:47 | -18.40110 | 122.07158 | 10538 ft | 359 kts | 46° |
| 2026-04-18 09:47 | -18.38408 | 122.08992 | 10398 ft | 337 kts | 46° |
| 2026-04-18 09:48 | -18.36817 | 122.10706 | 10300 ft | 318 kts | 46° |
| 2026-04-18 09:48 | -18.35301 | 122.12341 | 10177 ft | 303 kts | 46° |
| 2026-04-18 09:48 | -18.33869 | 122.13885 | 9935 ft | 293 kts | 46° |
| 2026-04-18 09:48 | -18.32446 | 122.15417 | 9550 ft | 291 kts | 46° |
| 2026-04-18 09:49 | -18.31032 | 122.16939 | 9166 ft | 287 kts | 46° |
| 2026-04-18 09:49 | -18.29653 | 122.18420 | 8806 ft | 284 kts | 46° |
| 2026-04-18 09:49 | -18.28272 | 122.19905 | 8451 ft | 280 kts | 47° |
| 2026-04-18 09:49 | -18.26926 | 122.21351 | 8100 ft | 277 kts | 47° |
| 2026-04-18 09:50 | -18.25579 | 122.22797 | 7750 ft | 274 kts | 47° |
| 2026-04-18 09:50 | -18.24267 | 122.24206 | 7404 ft | 270 kts | 47° |
| 2026-04-18 09:50 | -18.22953 | 122.25617 | 7058 ft | 268 kts | 47° |
| 2026-04-18 09:50 | -18.21649 | 122.27017 | 6716 ft | 265 kts | 47° |
| 2026-04-18 09:51 | -18.20367 | 122.28394 | 6383 ft | 261 kts | 48° |
| 2026-04-18 09:51 | -18.19106 | 122.29745 | 6054 ft | 258 kts | 48° |
| 2026-04-18 09:51 | -18.17851 | 122.31091 | 5733 ft | 255 kts | 48° |
| 2026-04-18 09:51 | -18.16617 | 122.32416 | 5391 ft | 253 kts | 48° |
| 2026-04-18 09:52 | -18.15383 | 122.33740 | 5072 ft | 251 kts | 48° |
| 2026-04-18 09:52 | -18.14175 | 122.35035 | 4764 ft | 251 kts | 48° |
| 2026-04-18 09:52 | -18.12934 | 122.36367 | 4474 ft | 253 kts | 48° |
| 2026-04-18 09:52 | -18.11722 | 122.37664 | 4361 ft | 241 kts | 48° |
| 2026-04-18 09:53 | -18.10582 | 122.38882 | 4293 ft | 229 kts | 48° |
| 2026-04-18 09:53 | -18.09480 | 122.40061 | 4229 ft | 223 kts | 48° |
| 2026-04-18 09:53 | -18.08315 | 122.41137 | 4147 ft | 224 kts | 35° |
| 2026-04-18 09:53 | -18.06854 | 122.41637 | 3964 ft | 221 kts | 5° |
| 2026-04-18 09:54 | -18.05319 | 122.41509 | 3693 ft | 220 kts | 355° |
| 2026-04-18 09:54 | -18.03821 | 122.41299 | 3449 ft | 216 kts | 357° |
| 2026-04-18 09:54 | -18.02344 | 122.41142 | 3238 ft | 210 kts | 358° |
| 2026-04-18 09:54 | -18.00922 | 122.40928 | 3099 ft | 202 kts | 348° |
| 2026-04-18 09:55 | -17.99719 | 122.40173 | 2970 ft | 202 kts | 311° |
| 2026-04-18 09:55 | -17.99116 | 122.38832 | 2984 ft | 207 kts | 286° |
| 2026-04-18 09:55 | -17.98763 | 122.37369 | 2982 ft | 206 kts | 285° |
| 2026-04-18 09:55 | -17.98389 | 122.35920 | 2870 ft | 208 kts | 287° |
| 2026-04-18 09:56 | -17.98000 | 122.34465 | 2653 ft | 204 kts | 287° |
| 2026-04-18 09:56 | -17.97620 | 122.33046 | 2420 ft | 199 kts | 287° |
| 2026-04-18 09:56 | -17.97241 | 122.31631 | 2185 ft | 201 kts | 287° |
| 2026-04-18 09:56 | -17.96865 | 122.30224 | 1933 ft | 199 kts | 286° |
| 2026-04-18 09:57 | -17.96505 | 122.28872 | 1635 ft | 189 kts | 286° |
| 2026-04-18 09:57 | -17.96168 | 122.27549 | 1245 ft | 182 kts | 284° |
| 2026-04-18 09:57 | -17.95847 | 122.26315 | 868 ft | 172 kts | 285° |
| 2026-04-18 09:57 | -17.95525 | 122.25136 | 414 ft | 168 kts | 285° |
| 2026-04-18 09:58 | -17.95212 | 122.24002 | 120 ft | 154 kts | 284° |
| 2026-04-18 09:58 | -17.94953 | 122.23019 | 31 ft | 110 kts | 285° |
| 2026-04-18 09:58 | -17.94809 | 122.22438 | 31 ft | 49 kts | 284° |
| 2026-04-18 09:58 | -17.94757 | 122.22339 | 31 ft | 3 kts | 354° |
| 2026-04-18 09:59 | -17.94742 | 122.22338 | 31 ft | 2 kts | 358° |
| 2026-04-18 09:59 | -17.94722 | 122.22340 | 31 ft | 5 kts | 9° |
| 2026-04-18 09:59 | -17.94701 | 122.22380 | 31 ft | 7 kts | 100° |
| 2026-04-18 10:00 | -17.94731 | 122.22501 | 31 ft | 12 kts | 106° |
| 2026-04-18 10:00 | -17.94758 | 122.22601 | 31 ft | 14 kts | 105° |
| 2026-04-18 10:00 | -17.94784 | 122.22701 | 31 ft | 14 kts | 105° |
| 2026-04-18 10:00 | -17.94811 | 122.22802 | 31 ft | 14 kts | 106° |
| 2026-04-18 10:01 | -17.94838 | 122.22899 | 31 ft | 13 kts | 106° |
| 2026-04-18 10:01 | -17.94864 | 122.22997 | 31 ft | 13 kts | 105° |
| 2026-04-18 10:01 | -17.94889 | 122.23094 | 31 ft | 13 kts | 104° |
| 2026-04-18 10:01 | -17.94914 | 122.23189 | 31 ft | 13 kts | 106° |
| 2026-04-18 10:02 | -17.94934 | 122.23284 | 31 ft | 13 kts | 104° |
| 2026-04-18 10:02 | -17.94958 | 122.23373 | 31 ft | 10 kts | 105° |
| 2026-04-18 10:02 | -17.94970 | 122.23405 | 31 ft | 0 kts | 138° |
| 2026-04-18 10:04 | -17.94978 | 122.23411 | 31 ft | 3 kts | 153° |
| 2026-04-18 10:04 | -17.95013 | 122.23408 | 31 ft | 7 kts | 195° |
| 2026-04-18 10:05 | -17.95080 | 122.23388 | 31 ft | 11 kts | 197° |
| 2026-04-18 10:05 | -17.95161 | 122.23363 | 31 ft | 11 kts | 197° |
| 2026-04-18 10:05 | -17.95211 | 122.23305 | 31 ft | 10 kts | 217° |
| 2026-04-18 10:05 | -17.95271 | 122.23286 | 31 ft | 1 kts | 170° |
| 2026-04-18 10:06 | -17.95278 | 122.23299 | 31 ft | 2 kts | 88° |
| 2026-04-18 10:06 | -17.95272 | 122.23315 | 31 ft | 2 kts | 63° |
| 2026-04-18 10:06 | -17.95266 | 122.23328 | 31 ft | 1 kts | 63° |
| 2026-04-18 10:06 | -17.95264 | 122.23332 | 31 ft | 0 kts | 63° |